Flight Track Log - Related Links

Times and Time Zones

All times are in EDT time to prevent confusion due to time zone crossing. See the ASQ4492 flight status page for this flight to view local times or setup timezone preferences in your user account.

Time Position Orientation Groundspeed Altitude Reporting Facility
EDT Latitude Longitude Course Direction KTS MPH feet Rate Location/Type
Mon 08:32:00 PM 29.9834 -94.5281 90° East  Level FlightAware Approximate
Mon 08:33:00 PM 29.9834 -94.4130 90° East  Level FlightAware Approximate
Mon 08:34:00 PM 29.9837 -94.2981 77° East  Level FlightAware Approximate
Mon 08:35:00 PM 30.0062 -94.1860 77° East  Level FlightAware Approximate
Mon 08:36:00 PM 30.0214 -94.0725 85° East  Level FlightAware Approximate
Mon 08:37:00 PM 30.0302 -93.9579 85° East  Level FlightAware Approximate
Mon 08:38:00 PM 30.0425 -93.8437 82° East  Level FlightAware Approximate
Mon 08:39:00 PM 30.0567 -93.7298 82° East  Level FlightAware Approximate
Mon 08:40:00 PM 30.0708 -93.6158 82° East  Level FlightAware Approximate
Mon 08:41:00 PM 30.0848 -93.5018 82° East  Level FlightAware Approximate
Mon 08:42:00 PM 30.0987 -93.3878 82° East  Level FlightAware Approximate
Mon 08:43:00 PM 30.1125 -93.2737 82° East  Level FlightAware Approximate
Mon 08:44:00 PM 30.1262 -93.1596 82° East  Level FlightAware Approximate
Mon 08:45:00 PM 30.1445 -93.0465 76° East  Level FlightAware Approximate
Mon 08:46:00 PM 30.1677 -92.9344 76° East  Level FlightAware Approximate
Mon 08:47:00 PM 30.1908 -92.8223 77° East  Level FlightAware Approximate
Mon 08:48:00 PM 30.2139 -92.7101 77° East  Level FlightAware Approximate
Mon 08:49:00 PM 30.2368 -92.5979 77° East  Level FlightAware Approximate
Mon 08:50:00 PM 30.2561 -92.4849 82° East  Level FlightAware Approximate
Mon 08:51:00 PM 30.2722 -92.3711 77° East  Level FlightAware Approximate
Mon 08:52:00 PM 30.2938 -92.2584 77° East  Level FlightAware Approximate
Mon 08:53:00 PM 30.3152 -92.1457 78° East  Level FlightAware Approximate
Mon 08:54:00 PM 30.3335 -92.0326 78° East  Level FlightAware Approximate
Mon 08:55:00 PM 30.3540 -91.9196 78° East  Level FlightAware Approximate
Mon 08:56:00 PM 30.3773 -91.8074 74° East  Level FlightAware Approximate
Mon 08:57:00 PM 30.4051 -91.6965 74° East  Level FlightAware Approximate
Mon 08:58:00 PM 30.4197 -91.5832 78° East  Level FlightAware Approximate
Mon 08:59:00 PM 30.4403 -91.4701 78° East  Level FlightAware Approximate
Mon 09:00:00 PM 30.4646 -91.3581 74° East  Level FlightAware Approximate
Mon 09:01:00 PM 30.4914 -91.2506 60° Northeast  Level FlightAware Approximate
Mon 09:02:00 PM 30.5157 -91.1394 79° East  Level FlightAware Approximate
Mon 09:03:00 PM 30.5167 -91.1333 79° East  Level FlightAware Approximate
Mon 09:04:00 PM 30.5329 -91.1499 79° East  Level Estimated
Mon 09:05:00 PM 30.5329 -91.1499 79° East  Level Estimated
Mon 09:06:00 PM 30.5329 -91.1499 79° East  Level Estimated

Login

Don't have an account? Register now (free) for customized features, flight alerts, and more!